createdAt,value
2019-02-23T00:00:03.465Z,16.27
2019-02-23T00:02:31.857Z,8.47
2019-02-23T00:05:00.347Z,5.03
2019-02-23T00:07:28.957Z,7.43
2019-02-23T00:09:57.378Z,7.70
2019-02-23T00:12:25.777Z,4.87
2019-02-23T00:14:54.191Z,12.47
2019-02-23T00:17:22.590Z,6.93
2019-02-23T00:19:51.027Z,5.13
2019-02-23T00:22:19.417Z,5.87
2019-02-23T00:24:48.213Z,5.70
2019-02-23T00:27:16.623Z,5.80
2019-02-23T00:29:45.261Z,7.20
2019-02-23T00:32:13.676Z,6.27
2019-02-23T00:34:42.083Z,6.10
2019-02-23T00:37:10.483Z,7.27
2019-02-23T00:39:38.887Z,4.63
2019-02-23T00:42:07.356Z,4.27
2019-02-23T00:44:35.769Z,5.73
2019-02-23T00:47:04.237Z,9.13
2019-02-23T00:49:36.518Z,11.07
2019-02-23T00:52:03.836Z,7.77
2019-02-23T00:54:32.250Z,8.53
2019-02-23T00:57:01.140Z,6.17
2019-02-23T00:59:29.520Z,4.87
2019-02-23T01:01:57.957Z,5.37
2019-02-23T01:04:26.360Z,10.70
2019-02-23T01:06:54.769Z,6.90
2019-02-23T01:09:23.179Z,6.97
2019-02-23T01:11:51.604Z,5.17
2019-02-23T01:14:20.024Z,6.13
2019-02-23T01:16:48.422Z,5.47
2019-02-23T01:19:17.117Z,8.50
2019-02-23T01:21:45.516Z,5.50
2019-02-23T01:24:13.924Z,8.23
2019-02-23T01:26:42.341Z,6.90
2019-02-23T01:29:10.740Z,6.83
2019-02-23T01:31:39.148Z,6.70
2019-02-23T01:34:07.544Z,6.83
2019-02-23T01:36:35.953Z,8.23
2019-02-23T01:39:06.032Z,9.03
2019-02-23T01:41:35.966Z,5.60
2019-02-23T01:44:04.535Z,8.03
2019-02-23T01:46:33.354Z,5.87
2019-02-23T01:49:01.800Z,7.83
2019-02-23T01:51:30.216Z,8.13
2019-02-23T01:53:58.884Z,4.43
2019-02-23T01:56:27.290Z,7.10
2019-02-23T01:58:55.785Z,5.80
2019-02-23T02:01:24.208Z,7.93
2019-02-23T02:03:52.627Z,7.70
2019-02-23T02:06:21.048Z,7.97
2019-02-23T02:08:49.509Z,4.90
2019-02-23T02:11:18.282Z,10.90
2019-02-23T02:13:46.704Z,8.63
2019-02-23T02:16:15.101Z,7.90
2019-02-23T02:18:43.517Z,9.73
2019-02-23T02:21:11.925Z,10.00
2019-02-23T02:23:40.328Z,6.30
2019-02-23T02:26:08.726Z,8.13
2019-02-23T02:28:37.138Z,6.10
2019-02-23T02:31:05.531Z,4.73
2019-02-23T02:33:36.523Z,6.60
2019-02-23T02:36:04.922Z,6.70
2019-02-23T02:38:33.330Z,6.27
2019-02-23T02:41:01.838Z,3.87
2019-02-23T02:43:30.292Z,7.63
2019-02-23T02:45:58.741Z,4.90
2019-02-23T02:48:27.157Z,7.10
2019-02-23T02:50:55.547Z,7.97
2019-02-23T02:53:23.964Z,5.73
2019-02-23T02:55:52.369Z,7.40
2019-02-23T02:58:20.770Z,8.03
2019-02-23T03:00:49.164Z,9.07
2019-02-23T03:03:17.585Z,4.17
2019-02-23T03:05:47.401Z,6.13
2019-02-23T03:08:15.867Z,6.50
2019-02-23T03:10:44.267Z,9.33
2019-02-23T03:13:12.674Z,14.40
2019-02-23T03:15:41.081Z,6.70
2019-02-23T03:18:09.488Z,5.73
2019-02-23T03:20:37.884Z,5.20
2019-02-23T03:23:06.548Z,7.73
2019-02-23T03:25:34.990Z,7.37
2019-02-23T03:28:03.401Z,9.60
2019-02-23T03:30:31.800Z,6.20
2019-02-23T03:33:00.380Z,6.70
2019-02-23T03:35:28.973Z,7.07
2019-02-23T03:37:58.587Z,7.47
2019-02-23T03:40:26.989Z,9.63
2019-02-23T03:42:55.384Z,7.23
2019-02-23T03:45:23.808Z,6.67
2019-02-23T03:47:52.207Z,8.20
2019-02-23T03:50:20.590Z,9.40
2019-02-23T03:52:49.049Z,7.20
2019-02-23T03:55:19.812Z,5.13
2019-02-23T03:57:48.209Z,7.03
2019-02-23T04:00:16.620Z,6.90
2019-02-23T04:02:45.035Z,7.07
2019-02-23T04:05:13.453Z,5.97
2019-02-23T04:07:41.853Z,8.63
2019-02-23T04:10:10.417Z,8.47
2019-02-23T04:12:38.824Z,7.57
2019-02-23T04:15:07.959Z,5.27
2019-02-23T04:17:36.351Z,8.90
2019-02-23T04:20:06.804Z,8.97
2019-02-23T04:22:35.216Z,9.30
2019-02-23T04:25:04.244Z,10.00
2019-02-23T04:27:32.640Z,10.00
2019-02-23T04:30:01.057Z,15.43
2019-02-23T04:32:29.645Z,8.60
2019-02-23T04:34:58.082Z,9.03
2019-02-23T04:37:26.472Z,6.17
2019-02-23T04:39:54.908Z,6.63
2019-02-23T04:42:23.438Z,7.23
2019-02-23T04:44:51.841Z,7.37
2019-02-23T04:47:20.388Z,9.50
2019-02-23T04:49:51.864Z,8.80
2019-02-23T04:52:29.024Z,7.03
2019-02-23T04:54:57.425Z,7.07
2019-02-23T04:57:25.884Z,8.50
2019-02-23T04:59:54.310Z,7.30
2019-02-23T05:02:22.726Z,10.07
2019-02-23T05:04:51.126Z,7.30
2019-02-23T05:07:19.533Z,6.73
2019-02-23T05:09:47.940Z,9.77
2019-02-23T05:12:17.897Z,9.87
2019-02-23T05:14:46.295Z,8.20
2019-02-23T05:17:14.736Z,7.80
2019-02-23T05:19:43.149Z,7.13
2019-02-23T05:22:11.547Z,8.00
2019-02-23T05:24:39.965Z,6.87
2019-02-23T05:27:08.385Z,4.97
2019-02-23T05:29:37.081Z,5.73
2019-02-23T05:32:08.198Z,8.03
2019-02-23T05:34:36.600Z,7.20
2019-02-23T05:37:05.007Z,7.30
2019-02-23T05:39:33.404Z,8.30
2019-02-23T05:42:02.091Z,6.53
2019-02-23T05:44:30.488Z,5.53
2019-02-23T05:46:58.896Z,8.03
2019-02-23T05:49:27.308Z,6.40
2019-02-23T05:51:55.714Z,8.83
2019-02-23T05:54:24.253Z,10.17
2019-02-23T05:56:52.734Z,7.33
2019-02-23T05:59:21.133Z,9.73
2019-02-23T06:01:49.542Z,6.77
2019-02-23T06:04:17.947Z,7.77
2019-02-23T06:06:46.357Z,7.30
2019-02-23T06:09:14.756Z,8.30
2019-02-23T06:11:43.169Z,10.80
2019-02-23T06:14:11.566Z,8.93
2019-02-23T06:16:39.976Z,9.53
2019-02-23T06:19:08.385Z,6.40
2019-02-23T06:21:36.869Z,7.83
2019-02-23T06:24:05.299Z,6.30
2019-02-23T06:26:33.750Z,8.30
2019-02-23T06:29:02.159Z,10.90
2019-02-23T06:31:30.596Z,8.30
2019-02-23T06:33:59.017Z,8.27
2019-02-23T06:36:27.414Z,10.53
2019-02-23T06:38:55.823Z,9.83
2019-02-23T06:41:24.220Z,7.27
2019-02-23T06:43:52.747Z,7.10
2019-02-23T06:46:21.158Z,8.50
2019-02-23T06:48:49.645Z,8.20
2019-02-23T06:51:18.051Z,7.73
2019-02-23T06:53:46.462Z,9.20
2019-02-23T06:56:14.861Z,13.63
2019-02-23T06:58:43.634Z,9.87
2019-02-23T07:01:12.043Z,10.70
2019-02-23T07:03:40.462Z,11.23
2019-02-23T07:06:08.949Z,10.33
2019-02-23T07:08:37.377Z,11.73
2019-02-23T07:11:06.453Z,12.77
2019-02-23T07:13:34.864Z,10.63
2019-02-23T07:16:03.278Z,12.17
2019-02-23T07:18:31.909Z,18.60
2019-02-23T07:21:00.305Z,15.33
2019-02-23T07:23:28.785Z,12.70
2019-02-23T07:25:57.264Z,12.87
2019-02-23T07:28:25.715Z,10.10
2019-02-23T07:30:54.113Z,13.60
2019-02-23T07:33:32.314Z,15.30
2019-02-23T07:35:52.683Z,15.00
2019-02-23T07:38:21.098Z,15.30
2019-02-23T07:40:49.513Z,18.40
2019-02-23T07:43:17.924Z,16.53
2019-02-23T07:45:46.355Z,12.13
2019-02-23T07:48:14.763Z,14.40
2019-02-23T07:50:43.573Z,11.33
2019-02-23T07:53:12.152Z,11.63
2019-02-23T07:55:40.641Z,11.83
2019-02-23T07:58:09.095Z,12.73
2019-02-23T08:00:37.712Z,15.03
2019-02-23T08:03:06.166Z,11.57
2019-02-23T08:05:35.023Z,12.83
2019-02-23T08:08:03.755Z,12.50
2019-02-23T08:10:32.311Z,11.37
2019-02-23T08:13:00.724Z,15.23
2019-02-23T08:15:29.166Z,15.67
2019-02-23T08:17:57.781Z,13.37
2019-02-23T08:20:26.274Z,16.23
2019-02-23T08:22:54.883Z,13.50
2019-02-23T08:25:23.336Z,11.77
2019-02-23T08:27:51.729Z,18.97
2019-02-23T08:30:20.245Z,13.17
2019-02-23T08:32:48.698Z,13.83
2019-02-23T08:35:17.148Z,16.13
2019-02-23T08:37:45.603Z,12.30
2019-02-23T08:40:16.188Z,17.73
2019-02-23T08:42:44.659Z,13.90
2019-02-23T08:45:13.246Z,13.70
2019-02-23T08:47:41.653Z,11.70
2019-02-23T08:50:16.629Z,12.10
2019-02-23T08:52:49.103Z,16.03
2019-02-23T08:55:15.208Z,12.97
2019-02-23T08:57:43.700Z,12.23
2019-02-23T09:00:17.477Z,15.70
2019-02-23T09:02:47.247Z,11.10
2019-02-23T09:05:15.948Z,22.17
2019-02-23T09:07:47.101Z,10.47
2019-02-23T09:10:16.080Z,9.47
2019-02-23T09:12:44.486Z,9.10
2019-02-23T09:15:12.905Z,14.60
2019-02-23T09:17:41.296Z,13.93
2019-02-23T09:20:11.579Z,14.87
2019-02-23T09:22:40.548Z,12.50
2019-02-23T09:25:10.495Z,14.00
2019-02-23T09:27:38.893Z,10.30
2019-02-23T09:30:12.176Z,10.23
2019-02-23T09:32:40.580Z,15.43
2019-02-23T09:35:09.066Z,10.17
2019-02-23T09:37:37.502Z,12.17
2019-02-23T09:40:11.565Z,14.10
2019-02-23T09:42:40.200Z,14.87
2019-02-23T09:45:11.346Z,16.37
2019-02-23T09:47:39.749Z,8.33
2019-02-23T09:50:08.710Z,12.78
2019-02-23T09:52:37.116Z,12.00
2019-02-23T09:55:06.356Z,11.73
2019-02-23T09:57:35.025Z,13.17
2019-02-23T10:00:05.009Z,17.83
2019-02-23T10:02:33.456Z,10.70
2019-02-23T10:05:01.857Z,10.90
2019-02-23T10:07:30.277Z,11.70
2019-02-23T10:09:58.672Z,10.73
2019-02-23T10:12:27.080Z,10.70
2019-02-23T10:14:55.488Z,17.17
2019-02-23T10:17:23.893Z,13.93
2019-02-23T10:19:52.297Z,16.03
2019-02-23T10:22:20.722Z,21.80
2019-02-23T10:24:49.129Z,16.90
2019-02-23T10:27:17.535Z,11.43
2019-02-23T10:29:45.934Z,11.07
2019-02-23T10:32:14.361Z,13.63
2019-02-23T10:34:42.769Z,13.37
2019-02-23T10:37:11.187Z,18.90
2019-02-23T10:39:39.593Z,15.47
2019-02-23T10:42:07.996Z,8.87
2019-02-23T10:44:36.397Z,11.70
2019-02-23T10:47:04.803Z,11.67
2019-02-23T10:49:34.889Z,9.33
2019-02-23T10:52:03.545Z,10.60
2019-02-23T10:54:31.940Z,9.77
2019-02-23T10:57:00.347Z,12.07
2019-02-23T10:59:28.798Z,9.40
2019-02-23T11:01:57.194Z,9.77
2019-02-23T11:04:25.613Z,12.73
2019-02-23T11:06:54.040Z,9.10
2019-02-23T11:09:24.299Z,16.90
2019-02-23T11:11:52.696Z,18.30
2019-02-23T11:14:21.112Z,9.40
2019-02-23T11:16:49.592Z,9.60
2019-02-23T11:19:17.992Z,10.20
2019-02-23T11:21:46.748Z,10.43
2019-02-23T11:24:15.144Z,18.73
2019-02-23T11:26:43.724Z,9.00
2019-02-23T11:29:12.121Z,7.70
2019-02-23T11:31:40.549Z,11.40
2019-02-23T11:34:08.949Z,11.10
2019-02-23T11:36:37.372Z,14.03
2019-02-23T11:39:06.044Z,22.93
2019-02-23T11:41:34.440Z,9.20
2019-02-23T11:44:03.303Z,11.87
2019-02-23T11:46:32.299Z,10.73
2019-02-23T11:49:00.716Z,16.00
2019-02-23T11:51:29.113Z,16.20
2019-02-23T11:53:57.609Z,9.23
2019-02-23T11:56:27.248Z,10.20
2019-02-23T11:58:55.664Z,13.47
2019-02-23T12:01:24.072Z,10.80
2019-02-23T12:03:54.149Z,15.80
2019-02-23T12:06:22.621Z,20.50
2019-02-23T12:08:51.044Z,19.07
2019-02-23T12:11:19.481Z,24.23
2019-02-23T12:13:47.978Z,22.07
2019-02-23T12:16:16.447Z,23.23
2019-02-23T12:18:45.220Z,11.53
2019-02-23T12:21:14.713Z,12.90
2019-02-23T12:23:43.156Z,11.43
2019-02-23T12:26:11.569Z,12.97
2019-02-23T12:28:39.995Z,14.33
2019-02-23T12:31:08.406Z,12.50
2019-02-23T12:33:36.830Z,12.00
2019-02-23T12:36:05.236Z,12.70
2019-02-23T12:38:33.643Z,9.70
2019-02-23T12:41:02.117Z,13.47
2019-02-23T12:43:30.524Z,9.30
2019-02-23T12:45:58.920Z,11.23
2019-02-23T12:48:27.344Z,8.53
2019-02-23T12:50:55.745Z,12.23
2019-02-23T12:53:24.156Z,10.23
2019-02-23T12:55:54.092Z,10.40
2019-02-23T12:58:22.500Z,9.60
2019-02-23T13:00:51.917Z,10.70
2019-02-23T13:03:20.381Z,20.40
2019-02-23T13:05:48.807Z,16.00
2019-02-23T13:08:17.209Z,11.53
2019-02-23T13:10:46.095Z,9.50
2019-02-23T13:13:23.585Z,9.53
2019-02-23T13:16:00.831Z,14.40
2019-02-23T13:18:37.955Z,10.30
2019-02-23T13:21:27.545Z,13.67
2019-02-23T13:24:01.614Z,12.53
2019-02-23T13:26:39.325Z,9.43
2019-02-23T13:29:19.033Z,12.17
2019-02-23T13:32:08.268Z,11.20
2019-02-23T13:34:39.786Z,11.80
2019-02-23T13:37:17.137Z,10.40
2019-02-23T13:39:51.611Z,7.67
2019-02-23T13:42:44.304Z,7.20
2019-02-23T13:45:30.656Z,10.77
2019-02-23T13:48:21.375Z,15.67
2019-02-23T13:51:06.167Z,12.03
2019-02-23T13:53:58.262Z,10.53
2019-02-23T13:56:41.472Z,8.93
2019-02-23T13:59:24.777Z,12.47
2019-02-23T14:01:59.130Z,10.70
2019-02-23T14:04:33.492Z,12.10
2019-02-23T14:07:10.917Z,25.07
2019-02-23T14:10:04.839Z,14.90
2019-02-23T14:12:54.283Z,20.23
2019-02-23T14:15:25.808Z,13.00
2019-02-23T14:17:57.484Z,12.60
2019-02-23T14:20:29.237Z,13.77
2019-02-23T14:23:01.001Z,15.17
2019-02-23T14:25:41.417Z,18.20
2019-02-23T14:28:18.123Z,20.97
2019-02-23T14:31:07.645Z,11.63
2019-02-23T14:34:00.129Z,13.27
2019-02-23T14:36:40.481Z,11.37
2019-02-23T14:39:14.886Z,11.93
2019-02-23T14:41:58.577Z,12.27
2019-02-23T14:44:47.933Z,14.67
2019-02-23T14:47:40.468Z,15.67
2019-02-23T14:50:40.668Z,12.53
2019-02-23T14:53:17.703Z,28.53
2019-02-23T14:55:54.567Z,14.23
2019-02-23T14:58:50.520Z,21.30
2019-02-23T15:01:43.527Z,14.30
2019-02-23T15:04:20.857Z,23.43
2019-02-23T15:07:11.845Z,12.10
2019-02-23T15:09:51.991Z,16.17
2019-02-23T15:12:28.093Z,18.00
2019-02-23T15:15:21.968Z,12.70
2019-02-23T15:18:26.745Z,12.33
2019-02-23T15:21:03.824Z,10.67
2019-02-23T15:23:51.765Z,14.43
2019-02-23T15:26:42.857Z,16.30
2019-02-23T15:29:23.144Z,18.37
2019-02-23T15:32:24.111Z,17.10
2019-02-23T15:35:14.221Z,12.33
2019-02-23T15:38:11.190Z,18.63
2019-02-23T15:41:08.361Z,22.80
2019-02-23T15:43:48.832Z,14.00
2019-02-23T15:46:43.895Z,23.10
2019-02-23T15:49:29.622Z,13.40
2019-02-23T15:51:58.893Z,10.57
2019-02-23T15:54:29.253Z,13.23
2019-02-23T15:56:57.421Z,12.00
2019-02-23T15:59:25.841Z,9.37
2019-02-23T16:01:54.257Z,11.10
2019-02-23T16:04:22.683Z,14.00
2019-02-23T16:06:51.077Z,15.03
2019-02-23T16:09:19.640Z,19.73
2019-02-23T16:11:48.034Z,11.77
2019-02-23T16:14:16.559Z,15.23
2019-02-23T16:16:47.274Z,16.33
2019-02-23T16:19:15.282Z,20.03
2019-02-23T16:21:46.186Z,11.20
2019-02-23T16:24:14.613Z,14.47
2019-02-23T16:26:43.013Z,12.33
2019-02-23T16:29:11.418Z,11.03
2019-02-23T16:31:39.824Z,9.57
2019-02-23T16:34:08.296Z,12.83
2019-02-23T16:36:36.779Z,11.07
2019-02-23T16:39:08.875Z,11.67
2019-02-23T16:41:37.321Z,14.20
2019-02-23T16:44:05.735Z,20.77
2019-02-23T16:46:34.228Z,14.13
2019-02-23T16:49:02.646Z,17.70
2019-02-23T16:51:32.733Z,12.90
2019-02-23T16:54:01.253Z,14.00
2019-02-23T16:56:29.662Z,17.60
2019-02-23T16:58:58.148Z,12.10
2019-02-23T17:01:26.620Z,12.60
2019-02-23T17:03:55.266Z,15.67
2019-02-23T17:06:23.762Z,14.20
2019-02-23T17:08:52.170Z,11.67
2019-02-23T17:11:20.588Z,16.30
2019-02-23T17:13:48.984Z,13.77
2019-02-23T17:16:18.909Z,12.77
2019-02-23T17:18:47.313Z,18.23
2019-02-23T17:21:15.717Z,16.40
2019-02-23T17:23:44.133Z,11.53
2019-02-23T17:26:12.541Z,14.17
2019-02-23T17:28:40.948Z,11.67
2019-02-23T17:31:09.506Z,12.40
2019-02-23T17:33:37.986Z,12.23
2019-02-23T17:36:06.496Z,12.47
2019-02-23T17:38:34.941Z,12.63
2019-02-23T17:41:03.373Z,12.57
2019-02-23T17:43:31.829Z,14.70
2019-02-23T17:46:00.273Z,12.30
2019-02-23T17:50:57.164Z,16.90
2019-02-23T17:53:25.609Z,24.30
2019-02-23T17:55:54.015Z,21.43
2019-02-23T17:58:23.143Z,13.30
2019-02-23T18:00:51.756Z,13.33
2019-02-23T18:03:20.168Z,16.70
2019-02-23T18:05:48.569Z,15.50
2019-02-23T18:08:16.990Z,14.80
2019-02-23T18:10:45.395Z,16.50
2019-02-23T18:13:13.809Z,20.07
2019-02-23T18:15:42.213Z,17.03
2019-02-23T18:18:10.631Z,17.93
2019-02-23T18:20:39.020Z,24.37
2019-02-23T18:23:07.428Z,12.43
2019-02-23T18:25:35.841Z,13.07
2019-02-23T18:28:05.685Z,14.43
2019-02-23T18:30:34.246Z,14.70
2019-02-23T18:33:02.813Z,17.97
2019-02-23T18:35:31.226Z,15.10
2019-02-23T18:37:59.680Z,15.07
2019-02-23T18:40:28.076Z,19.40
2019-02-23T18:42:56.494Z,18.00
2019-02-23T18:45:24.900Z,17.73
2019-02-23T18:47:53.314Z,14.90
2019-02-23T18:50:21.854Z,13.93
2019-02-23T18:52:50.506Z,13.20
2019-02-23T18:55:18.908Z,15.87
2019-02-23T18:57:47.324Z,10.70
2019-02-23T19:00:23.999Z,21.53
2019-02-23T19:02:45.857Z,14.87
2019-02-23T19:05:14.297Z,18.60
2019-02-23T19:07:42.699Z,14.33
2019-02-23T19:10:14.434Z,15.27
2019-02-23T19:12:42.831Z,14.47
2019-02-23T19:15:12.957Z,18.60
2019-02-23T19:17:41.364Z,16.03
2019-02-23T19:20:12.423Z,14.57
2019-02-23T19:22:40.827Z,13.57
2019-02-23T19:25:11.079Z,12.90
2019-02-23T19:27:39.480Z,13.93
2019-02-23T19:30:11.261Z,12.47
2019-02-23T19:32:39.733Z,12.80
2019-02-23T19:35:08.887Z,10.90
2019-02-23T19:37:37.293Z,12.93
2019-02-23T19:40:12.678Z,16.70
2019-02-23T19:42:41.095Z,15.30
2019-02-23T19:45:11.260Z,11.80
2019-02-23T19:47:41.793Z,12.77
2019-02-23T19:50:13.556Z,12.60
2019-02-23T19:52:41.960Z,11.50
2019-02-23T19:55:13.718Z,11.40
2019-02-23T19:57:42.139Z,11.63
2019-02-23T20:00:10.554Z,10.00
2019-02-23T20:02:39.133Z,16.10
2019-02-23T20:05:09.378Z,17.20
2019-02-23T20:07:37.784Z,13.87
2019-02-23T20:10:08.945Z,15.40
2019-02-23T20:12:37.338Z,17.87
2019-02-23T20:15:08.089Z,14.13
2019-02-23T20:17:55.847Z,14.03
2019-02-23T20:20:24.266Z,13.93
2019-02-23T20:22:54.224Z,13.03
2019-02-23T20:25:22.727Z,15.60
2019-02-23T20:27:53.490Z,16.27
2019-02-23T20:30:21.913Z,12.17
2019-02-23T20:32:50.316Z,12.13
2019-02-23T20:35:18.798Z,13.50
2019-02-23T20:37:47.197Z,12.27
2019-02-23T20:40:15.610Z,14.33
2019-02-23T20:42:44.045Z,12.17
2019-02-23T20:45:12.509Z,13.13
2019-02-23T20:47:41.301Z,13.60
2019-02-23T20:50:10.934Z,13.63
2019-02-23T20:52:39.364Z,10.33
2019-02-23T20:55:09.223Z,10.50
2019-02-23T20:57:37.619Z,12.37
2019-02-23T21:00:11.703Z,11.80
2019-02-23T21:02:40.300Z,15.67
2019-02-23T21:05:11.294Z,14.10
2019-02-23T21:07:39.836Z,14.37
2019-02-23T21:10:09.598Z,17.63
2019-02-23T21:12:38.140Z,12.20
2019-02-23T21:15:09.101Z,10.10
2019-02-23T21:17:37.518Z,12.67
2019-02-23T21:20:08.365Z,12.67
2019-02-23T21:22:36.784Z,14.80
2019-02-23T21:25:07.220Z,12.30
2019-02-23T21:27:35.632Z,10.57
2019-02-23T21:30:05.956Z,16.80
2019-02-23T21:32:34.381Z,13.50
2019-02-23T21:35:02.803Z,12.33
2019-02-23T21:37:33.301Z,12.40
2019-02-23T21:40:01.703Z,14.00
2019-02-23T21:42:30.124Z,10.23
2019-02-23T21:44:58.670Z,16.53
2019-02-23T21:47:27.092Z,14.40
2019-02-23T21:49:55.513Z,19.17
2019-02-23T21:52:23.908Z,14.90
2019-02-23T21:54:52.313Z,12.80
2019-02-23T21:57:22.433Z,13.30
2019-02-23T21:59:50.919Z,12.83
2019-02-23T22:02:19.328Z,12.07
2019-02-23T22:04:47.739Z,14.67
2019-02-23T22:07:16.212Z,15.47
2019-02-23T22:09:44.610Z,41.17
2019-02-23T22:12:13.096Z,15.70
2019-02-23T22:14:41.484Z,13.90
2019-02-23T22:17:09.911Z,16.93
2019-02-23T22:19:38.322Z,22.73
2019-02-23T22:22:06.839Z,13.47
2019-02-23T22:24:35.257Z,16.30
2019-02-23T22:27:03.657Z,14.83
2019-02-23T22:29:32.081Z,16.07
2019-02-23T22:32:00.484Z,15.07
2019-02-23T22:34:28.894Z,18.40
2019-02-23T22:36:57.301Z,17.10
2019-02-23T22:39:25.779Z,12.90
2019-02-23T22:41:54.186Z,16.70
2019-02-23T22:44:22.606Z,15.53
2019-02-23T22:46:51.013Z,14.23
2019-02-23T22:49:19.420Z,15.70
2019-02-23T22:51:47.825Z,14.73
2019-02-23T22:54:16.248Z,14.47
2019-02-23T22:56:44.639Z,16.60
2019-02-23T22:59:13.051Z,19.03
2019-02-23T23:01:41.665Z,25.03
2019-02-23T23:04:10.086Z,17.87
2019-02-23T23:06:40.696Z,15.83
2019-02-23T23:09:10.821Z,35.20
2019-02-23T23:11:40.487Z,27.27
2019-02-23T23:14:16.201Z,17.43
2019-02-23T23:16:44.618Z,18.43
2019-02-23T23:19:13.017Z,22.43
2019-02-23T23:21:41.453Z,25.37
2019-02-23T23:24:09.862Z,15.57
2019-02-23T23:26:38.269Z,19.57
2019-02-23T23:29:06.686Z,18.43
2019-02-23T23:31:35.092Z,18.70
2019-02-23T23:34:03.496Z,15.27
2019-02-23T23:36:31.900Z,15.90
2019-02-23T23:39:00.311Z,18.90
2019-02-23T23:41:28.712Z,15.57
2019-02-23T23:43:57.113Z,17.43
2019-02-23T23:46:26.088Z,18.63
2019-02-23T23:48:54.494Z,18.23
2019-02-23T23:51:22.905Z,18.23
2019-02-23T23:53:51.312Z,17.20
2019-02-23T23:56:19.731Z,19.87
2019-02-23T23:58:48.124Z,19.30
